Terminal Aerodrome Forecast
Issued by NWS

Home | Current Version | Previous Version | Text Only | Print | Product List | Glossary On
Versions: 1 2 3 4 5 6 7 8 9 10 11 12 13 14 15 16 17 18 19 20 21
000
FTUS41 KILN 051100
TAFLUK
TAF
KLUK 051120Z 0512/0612 00000KT 3SM BR SCT045 BKN130 OVC250
     FM051300 10004KT P6SM SCT050 BKN130 OVC250
     FM060100 VRB03KT P6SM FEW040 SCT130 BKN250
     FM060300 00000KT 4SM BR SCT130 BKN250=

USA.gov is the U.S. government's official web portal to all federal, state and local government web resources and services.